createdAt,value
2022-12-11T00:02:29.390Z,24.80
2022-12-11T00:05:10.687Z,26.40
2022-12-11T00:08:02.644Z,25.17
2022-12-11T00:10:58.253Z,25.10
2022-12-11T00:13:55.638Z,22.80
2022-12-11T00:16:36.307Z,22.90
2022-12-11T00:19:32.013Z,24.35
2022-12-11T00:22:19.109Z,22.65
2022-12-11T00:25:11.505Z,25.10
2022-12-11T00:27:54.246Z,25.58
2022-12-11T00:30:46.427Z,25.40
2022-12-11T00:33:38.225Z,22.73
2022-12-11T00:36:14.453Z,25.48
2022-12-11T00:39:03.320Z,19.83
2022-12-11T00:41:44.173Z,20.75
2022-12-11T00:44:31.297Z,19.48
2022-12-11T00:47:20.213Z,20.13
2022-12-11T00:49:55.601Z,20.08
2022-12-11T00:52:52.299Z,20.20
2022-12-11T00:55:41.050Z,20.70
2022-12-11T00:58:25.241Z,19.63
2022-12-11T01:01:11.647Z,19.02
2022-12-11T01:03:54.529Z,20.70
2022-12-11T01:06:31.525Z,23.13
2022-12-11T01:09:29.138Z,21.70
2022-12-11T01:12:07.004Z,21.60
2022-12-11T01:14:51.627Z,26.10
2022-12-11T01:17:39.082Z,24.88
2022-12-11T01:20:25.261Z,22.23
2022-12-11T01:23:17.643Z,24.63
2022-12-11T01:26:03.832Z,25.63
2022-12-11T01:28:54.034Z,21.70
2022-12-11T01:31:39.213Z,21.10
2022-12-11T01:34:39.955Z,20.17
2022-12-11T01:37:26.024Z,23.23
2022-12-11T01:40:09.257Z,19.75
2022-12-11T01:42:46.350Z,21.98
2022-12-11T01:45:47.719Z,21.00
2022-12-11T01:48:42.524Z,20.40
2022-12-11T01:51:22.465Z,19.13
2022-12-11T01:54:12.232Z,20.83
2022-12-11T01:57:05.310Z,19.88
2022-12-11T01:59:54.237Z,19.67
2022-12-11T02:02:46.375Z,17.65
2022-12-11T02:05:29.427Z,18.70
2022-12-11T02:08:14.426Z,17.67
2022-12-11T02:10:59.268Z,18.23
2022-12-11T02:13:53.258Z,17.75
2022-12-11T02:16:55.505Z,14.70
2022-12-11T02:19:55.750Z,15.13
2022-12-11T02:22:56.768Z,17.17
2022-12-11T02:26:06.231Z,16.38
2022-12-11T02:29:07.249Z,16.10
2022-12-11T02:32:10.187Z,14.95
2022-12-11T02:35:26.779Z,15.18
2022-12-11T02:38:37.984Z,14.55
2022-12-11T02:41:28.248Z,15.02
2022-12-11T02:44:10.054Z,15.77
2022-12-11T02:47:08.570Z,15.95
2022-12-11T02:49:54.168Z,15.18
2022-12-11T02:52:43.213Z,13.82
2022-12-11T02:55:36.400Z,14.65
2022-12-11T02:58:52.645Z,14.85
2022-12-11T03:01:35.849Z,13.48
2022-12-11T03:04:21.695Z,14.02
2022-12-11T03:07:12.284Z,14.95
2022-12-11T03:10:18.960Z,14.43
2022-12-11T03:13:01.654Z,14.38
2022-12-11T03:16:09.080Z,14.75
2022-12-11T03:19:10.238Z,13.35
2022-12-11T03:22:18.228Z,15.18
2022-12-11T03:25:02.679Z,26.48
2022-12-11T03:27:57.196Z,14.13
2022-12-11T03:30:42.983Z,15.30
2022-12-11T03:33:51.910Z,13.93
2022-12-11T03:36:39.523Z,14.32
2022-12-11T03:39:50.473Z,14.70
2022-12-11T03:42:34.603Z,13.85
2022-12-11T03:45:22.181Z,13.80
2022-12-11T03:48:06.277Z,14.35
2022-12-11T03:50:46.363Z,13.35
2022-12-11T03:53:39.545Z,13.55
2022-12-11T03:56:34.392Z,12.75
2022-12-11T03:59:33.276Z,12.18
2022-12-11T04:02:25.487Z,11.52
2022-12-11T04:05:11.513Z,10.95
2022-12-11T04:08:04.738Z,11.50
2022-12-11T04:11:21.821Z,12.18
2022-12-11T04:14:18.830Z,10.10
2022-12-11T04:16:58.396Z,11.23
2022-12-11T04:20:09.630Z,11.57
2022-12-11T04:23:10.002Z,10.75
2022-12-11T04:25:53.643Z,9.82
2022-12-11T04:28:37.773Z,9.73
2022-12-11T04:31:26.255Z,10.18
2022-12-11T04:34:13.110Z,11.02
2022-12-11T04:36:57.035Z,11.20
2022-12-11T04:40:02.056Z,10.70
2022-12-11T04:42:55.074Z,9.93
2022-12-11T04:45:36.646Z,10.68
2022-12-11T04:48:12.418Z,6.93
2022-12-11T04:53:42.177Z,9.25
2022-12-11T04:56:30.512Z,9.75
2022-12-11T04:59:23.838Z,8.90
2022-12-11T05:02:15.984Z,8.35
2022-12-11T05:05:04.209Z,8.45
2022-12-11T05:08:01.439Z,9.52
2022-12-11T05:11:08.309Z,10.07
2022-12-11T05:13:54.276Z,10.32
2022-12-11T05:16:44.284Z,9.07
2022-12-11T05:19:30.556Z,10.73
2022-12-11T05:22:18.241Z,10.20
2022-12-11T05:25:02.038Z,10.73
2022-12-11T05:27:46.134Z,10.60
2022-12-11T05:30:39.185Z,10.45
2022-12-11T05:33:23.785Z,10.38
2022-12-11T05:36:02.254Z,10.32
2022-12-11T05:38:40.305Z,10.05
2022-12-11T05:41:27.299Z,9.98
2022-12-11T05:44:13.722Z,11.32
2022-12-11T05:46:58.443Z,13.10
2022-12-11T05:49:43.576Z,11.50
2022-12-11T05:52:24.051Z,10.35
2022-12-11T05:55:04.451Z,13.10
2022-12-11T05:58:02.021Z,11.98
2022-12-11T06:00:50.032Z,10.18
2022-12-11T06:03:37.018Z,11.95
2022-12-11T06:06:23.680Z,11.45
2022-12-11T06:09:07.901Z,10.85
2022-12-11T06:11:56.765Z,12.38
2022-12-11T06:14:36.873Z,12.20
2022-12-11T06:17:24.232Z,12.23
2022-12-11T06:20:18.483Z,12.00
2022-12-11T06:23:03.500Z,12.00
2022-12-11T06:25:41.518Z,12.02
2022-12-11T06:28:20.565Z,11.43
2022-12-11T06:31:12.006Z,12.23
2022-12-11T06:33:56.937Z,12.60
2022-12-11T06:36:46.105Z,14.45
2022-12-11T06:39:42.635Z,16.70
2022-12-11T06:42:21.287Z,25.67
2022-12-11T06:45:13.723Z,12.68
2022-12-11T06:48:02.532Z,11.35
2022-12-11T06:53:27.130Z,23.40
2022-12-11T06:56:11.456Z,37.25
2022-12-11T06:59:05.681Z,21.50
2022-12-11T07:01:51.241Z,16.55
2022-12-11T07:04:37.676Z,20.98
2022-12-11T07:07:23.931Z,23.48
2022-12-11T07:10:14.183Z,26.73
2022-12-11T07:13:06.711Z,23.63
2022-12-11T07:15:48.819Z,17.70
2022-12-11T07:18:37.295Z,13.23
2022-12-11T07:21:18.435Z,15.43
2022-12-11T07:24:13.820Z,17.02
2022-12-11T07:27:03.142Z,17.85
2022-12-11T07:29:44.711Z,10.93
2022-12-11T07:32:28.030Z,23.85
2022-12-11T07:35:11.372Z,16.33
2022-12-11T07:37:57.963Z,13.80
2022-12-11T07:40:48.044Z,12.88
2022-12-11T07:43:38.224Z,12.48
2022-12-11T07:46:29.692Z,14.32
2022-12-11T07:49:26.586Z,13.90
2022-12-11T07:52:22.775Z,10.90
2022-12-11T07:55:14.301Z,13.85
2022-12-11T07:58:12.081Z,10.65
2022-12-11T08:00:54.892Z,16.75
2022-12-11T08:03:46.214Z,11.80
2022-12-11T08:06:28.153Z,13.18
2022-12-11T08:09:28.096Z,12.32
2022-12-11T08:12:20.458Z,12.90
2022-12-11T08:15:09.089Z,11.70
2022-12-11T08:18:04.470Z,11.15
2022-12-11T08:20:51.217Z,10.73
2022-12-11T08:23:44.232Z,11.00
2022-12-11T08:26:40.476Z,13.30
2022-12-11T08:29:23.859Z,11.70
2022-12-11T08:32:13.856Z,12.80
2022-12-11T08:35:00.953Z,13.88
2022-12-11T08:37:45.105Z,23.88
2022-12-11T08:40:38.439Z,11.18
2022-12-11T08:43:21.244Z,13.65
2022-12-11T08:46:18.161Z,12.48
2022-12-11T08:49:01.659Z,12.32
2022-12-11T08:51:42.624Z,13.73
2022-12-11T08:54:36.436Z,13.70
2022-12-11T08:57:25.333Z,13.70
2022-12-11T09:00:18.368Z,11.65
2022-12-11T09:03:12.516Z,10.48
2022-12-11T09:06:13.285Z,9.23
2022-12-11T09:09:01.071Z,11.80
2022-12-11T09:11:41.528Z,7.70
2022-12-11T09:14:28.414Z,11.13
2022-12-11T09:17:12.184Z,9.93
2022-12-11T09:19:58.208Z,10.25
2022-12-11T09:22:53.664Z,8.65
2022-12-11T09:25:40.248Z,10.57
2022-12-11T09:28:24.220Z,10.32
2022-12-11T09:31:18.363Z,8.50
2022-12-11T09:34:07.616Z,7.90
2022-12-11T09:36:55.220Z,8.07
2022-12-11T09:39:40.663Z,10.00
2022-12-11T09:42:28.240Z,7.78
2022-12-11T09:45:18.181Z,7.40
2022-12-11T09:48:05.343Z,7.38
2022-12-11T09:50:56.394Z,7.38
2022-12-11T09:53:51.199Z,7.72
2022-12-11T09:56:40.264Z,7.38
2022-12-11T10:00:04.196Z,7.35
2022-12-11T10:03:21.776Z,7.75
2022-12-11T10:06:13.335Z,8.80
2022-12-11T10:09:15.210Z,7.30
2022-12-11T10:12:14.003Z,10.85
2022-12-11T10:15:30.670Z,8.30
2022-12-11T10:18:13.165Z,7.97
2022-12-11T10:20:59.266Z,7.25
2022-12-11T10:24:10.116Z,10.55
2022-12-11T10:26:53.159Z,14.40
2022-12-11T10:29:43.217Z,11.20
2022-12-11T10:32:27.061Z,6.40
2022-12-11T10:35:25.926Z,9.02
2022-12-11T10:38:12.281Z,15.52
2022-12-11T10:40:57.290Z,9.15
2022-12-11T10:44:03.793Z,11.32
2022-12-11T10:46:52.458Z,9.90
2022-12-11T10:49:55.173Z,13.50
2022-12-11T10:52:49.840Z,6.43
2022-12-11T10:55:33.176Z,6.72
2022-12-11T10:58:26.019Z,8.43
2022-12-11T11:01:20.421Z,8.40
2022-12-11T11:04:24.681Z,6.03
2022-12-11T11:07:13.634Z,15.63
2022-12-11T11:09:56.280Z,10.82
2022-12-11T11:12:40.089Z,13.27
2022-12-11T11:18:25.284Z,9.45
2022-12-11T11:21:04.110Z,7.30
2022-12-11T11:23:50.533Z,9.98
2022-12-11T11:27:14.224Z,5.40
2022-12-11T11:30:08.396Z,6.88
2022-12-11T11:33:02.325Z,7.55
2022-12-11T11:35:56.441Z,7.18
2022-12-11T11:39:13.225Z,6.05
2022-12-11T11:42:03.336Z,7.78
2022-12-11T11:44:58.102Z,7.45
2022-12-11T11:47:51.035Z,7.43
2022-12-11T11:50:50.707Z,14.05
2022-12-11T11:53:45.330Z,6.90
2022-12-11T11:56:43.113Z,7.72
2022-12-11T11:59:59.690Z,8.63
2022-12-11T12:03:01.938Z,9.57
2022-12-11T12:05:57.005Z,13.35
2022-12-11T12:09:19.496Z,8.43
2022-12-11T12:12:43.855Z,11.90
2022-12-11T12:15:35.186Z,12.32
2022-12-11T12:18:49.123Z,11.75
2022-12-11T12:21:44.976Z,13.52
2022-12-11T12:25:00.763Z,6.95
2022-12-11T12:28:08.378Z,11.85
2022-12-11T12:31:04.357Z,8.93
2022-12-11T12:34:08.509Z,9.40
2022-12-11T12:37:12.382Z,8.55
2022-12-11T12:40:23.163Z,12.70
2022-12-11T12:43:10.473Z,8.85
2022-12-11T12:46:37.142Z,8.02
2022-12-11T12:49:44.440Z,13.82
2022-12-11T12:52:43.116Z,10.80
2022-12-11T12:55:31.941Z,12.07
2022-12-11T12:58:24.644Z,16.48
2022-12-11T13:01:38.546Z,7.72
2022-12-11T13:04:56.639Z,11.73
2022-12-11T13:07:40.971Z,10.88
2022-12-11T13:10:42.306Z,12.10
2022-12-11T13:13:56.120Z,10.40
2022-12-11T13:16:51.150Z,17.50
2022-12-11T13:19:55.952Z,12.95
2022-12-11T13:22:56.755Z,15.43
2022-12-11T13:26:05.464Z,13.07
2022-12-11T13:28:58.536Z,10.55
2022-12-11T13:31:41.785Z,8.80
2022-12-11T13:35:03.465Z,13.80
2022-12-11T13:37:55.506Z,13.63
2022-12-11T13:40:41.170Z,9.80
2022-12-11T13:43:36.638Z,10.25
2022-12-11T13:46:17.403Z,11.00
2022-12-11T13:49:10.836Z,11.90
2022-12-11T13:52:13.548Z,10.10
2022-12-11T13:55:01.543Z,8.27
2022-12-11T13:57:54.153Z,7.93
2022-12-11T14:00:41.749Z,9.25
2022-12-11T14:03:35.094Z,10.25
2022-12-11T14:06:21.515Z,9.90
2022-12-11T14:09:26.113Z,10.95
2022-12-11T14:12:15.147Z,10.88
2022-12-11T14:15:13.496Z,8.82
2022-12-11T14:17:52.300Z,10.07
2022-12-11T14:20:36.349Z,9.73
2022-12-11T14:23:38.819Z,8.43
2022-12-11T14:26:31.240Z,9.05
2022-12-11T14:29:12.635Z,10.57
2022-12-11T14:31:55.027Z,9.32
2022-12-11T14:35:03.893Z,8.98
2022-12-11T14:37:49.364Z,11.10
2022-12-11T14:40:47.130Z,9.65
2022-12-11T14:43:49.566Z,8.80
2022-12-11T14:46:43.133Z,10.45
2022-12-11T14:49:30.944Z,10.10
2022-12-11T14:52:32.588Z,10.77
2022-12-11T14:55:46.142Z,10.77
2022-12-11T14:58:38.325Z,10.60
2022-12-11T15:01:29.663Z,10.70
2022-12-11T15:07:05.557Z,10.50
2022-12-11T15:09:54.720Z,10.55
2022-12-11T15:12:49.884Z,10.63
2022-12-11T15:16:11.239Z,11.60
2022-12-11T15:18:59.027Z,10.07
2022-12-11T15:21:52.138Z,9.75
2022-12-11T15:24:41.864Z,11.00
2022-12-11T15:27:53.128Z,9.95
2022-12-11T15:30:39.757Z,10.63
2022-12-11T15:33:34.965Z,10.68
2022-12-11T15:36:34.916Z,11.35
2022-12-11T15:39:18.142Z,10.55
